sensor_id;sensor_type;location;lat;lon;timestamp;P1;durP1;ratioP1;P2;durP2;ratioP2
2161;SDS011;1087;50.226;8.682;2022-09-12T00:01:04;13.03;;;11.67;;
2161;SDS011;1087;50.226;8.682;2022-09-12T00:03:31;11.20;;;9.90;;
2161;SDS011;1087;50.226;8.682;2022-09-12T00:05:57;11.70;;;10.50;;
2161;SDS011;1087;50.226;8.682;2022-09-12T00:08:22;17.23;;;10.97;;
2161;SDS011;1087;50.226;8.682;2022-09-12T00:10:48;12.83;;;11.30;;
2161;SDS011;1087;50.226;8.682;2022-09-12T00:13:13;12.47;;;10.60;;
2161;SDS011;1087;50.226;8.682;2022-09-12T00:15:40;13.80;;;10.93;;
2161;SDS011;1087;50.226;8.682;2022-09-12T00:18:14;12.13;;;10.43;;
2161;SDS011;1087;50.226;8.682;2022-09-12T00:20:41;12.30;;;11.07;;
2161;SDS011;1087;50.226;8.682;2022-09-12T00:23:08;10.57;;;9.50;;
2161;SDS011;1087;50.226;8.682;2022-09-12T00:25:34;12.27;;;11.07;;
2161;SDS011;1087;50.226;8.682;2022-09-12T00:28:04;10.87;;;9.77;;
2161;SDS011;1087;50.226;8.682;2022-09-12T00:30:30;12.17;;;10.77;;
2161;SDS011;1087;50.226;8.682;2022-09-12T00:32:55;11.27;;;10.17;;
2161;SDS011;1087;50.226;8.682;2022-09-12T00:35:21;13.63;;;10.27;;
2161;SDS011;1087;50.226;8.682;2022-09-12T00:37:46;9.33;;;8.23;;
2161;SDS011;1087;50.226;8.682;2022-09-12T00:40:12;10.83;;;9.77;;
2161;SDS011;1087;50.226;8.682;2022-09-12T00:42:37;9.67;;;8.73;;
2161;SDS011;1087;50.226;8.682;2022-09-12T00:45:03;9.70;;;8.80;;
2161;SDS011;1087;50.226;8.682;2022-09-12T00:47:29;9.63;;;8.73;;
2161;SDS011;1087;50.226;8.682;2022-09-12T00:49:59;11.07;;;8.67;;
2161;SDS011;1087;50.226;8.682;2022-09-12T00:52:33;10.17;;;9.07;;
2161;SDS011;1087;50.226;8.682;2022-09-12T00:58:41;11.80;;;8.90;;
2161;SDS011;1087;50.226;8.682;2022-09-12T01:00:37;9.80;;;8.87;;
2161;SDS011;1087;50.226;8.682;2022-09-12T01:03:05;9.97;;;8.90;;
2161;SDS011;1087;50.226;8.682;2022-09-12T01:05:33;10.03;;;9.00;;
2161;SDS011;1087;50.226;8.682;2022-09-12T01:08:04;9.47;;;8.57;;
2161;SDS011;1087;50.226;8.682;2022-09-12T01:10:30;12.13;;;8.50;;
2161;SDS011;1087;50.226;8.682;2022-09-12T01:12:58;11.70;;;8.83;;
2161;SDS011;1087;50.226;8.682;2022-09-12T01:15:24;9.67;;;8.77;;
2161;SDS011;1087;50.226;8.682;2022-09-12T01:20:28;10.60;;;9.60;;
2161;SDS011;1087;50.226;8.682;2022-09-12T01:23:05;9.80;;;8.90;;
2161;SDS011;1087;50.226;8.682;2022-09-12T01:28:38;11.30;;;8.80;;
2161;SDS011;1087;50.226;8.682;2022-09-12T01:31:23;11.03;;;9.47;;
2161;SDS011;1087;50.226;8.682;2022-09-12T01:34:01;10.90;;;9.07;;
2161;SDS011;1087;50.226;8.682;2022-09-12T01:36:43;10.67;;;9.57;;
2161;SDS011;1087;50.226;8.682;2022-09-12T01:39:43;9.53;;;8.63;;
2161;SDS011;1087;50.226;8.682;2022-09-12T01:42:32;8.93;;;8.03;;
2161;SDS011;1087;50.226;8.682;2022-09-12T01:47:40;9.40;;;8.43;;
2161;SDS011;1087;50.226;8.682;2022-09-12T01:50:24;9.20;;;8.17;;
2161;SDS011;1087;50.226;8.682;2022-09-12T01:53:12;10.30;;;9.30;;
2161;SDS011;1087;50.226;8.682;2022-09-12T01:55:57;9.40;;;8.40;;
2161;SDS011;1087;50.226;8.682;2022-09-12T01:58:32;9.80;;;8.80;;
2161;SDS011;1087;50.226;8.682;2022-09-12T02:01:11;11.60;;;9.63;;
2161;SDS011;1087;50.226;8.682;2022-09-12T02:06:20;9.83;;;8.23;;
2161;SDS011;1087;50.226;8.682;2022-09-12T02:08:51;9.70;;;8.70;;
2161;SDS011;1087;50.226;8.682;2022-09-12T02:11:20;10.70;;;9.10;;
2161;SDS011;1087;50.226;8.682;2022-09-12T02:18:49;9.67;;;8.27;;
2161;SDS011;1087;50.226;8.682;2022-09-12T02:21:19;9.87;;;8.87;;
2161;SDS011;1087;50.226;8.682;2022-09-12T02:23:49;10.80;;;8.03;;
2161;SDS011;1087;50.226;8.682;2022-09-12T02:26:33;10.67;;;9.57;;
2161;SDS011;1087;50.226;8.682;2022-09-12T02:29:02;12.47;;;9.90;;
2161;SDS011;1087;50.226;8.682;2022-09-12T02:31:33;12.93;;;9.53;;
2161;SDS011;1087;50.226;8.682;2022-09-12T02:37:02;11.30;;;10.10;;
2161;SDS011;1087;50.226;8.682;2022-09-12T02:39:35;12.37;;;11.07;;
2161;SDS011;1087;50.226;8.682;2022-09-12T02:42:01;13.83;;;11.03;;
2161;SDS011;1087;50.226;8.682;2022-09-12T02:44:28;12.87;;;10.47;;
2161;SDS011;1087;50.226;8.682;2022-09-12T02:46:55;10.37;;;9.20;;
2161;SDS011;1087;50.226;8.682;2022-09-12T02:49:26;11.93;;;9.10;;
2161;SDS011;1087;50.226;8.682;2022-09-12T02:51:52;12.40;;;10.90;;
2161;SDS011;1087;50.226;8.682;2022-09-12T02:54:17;12.50;;;9.33;;
2161;SDS011;1087;50.226;8.682;2022-09-12T02:56:45;10.30;;;9.30;;
2161;SDS011;1087;50.226;8.682;2022-09-12T02:59:12;11.20;;;10.10;;
2161;SDS011;1087;50.226;8.682;2022-09-12T03:13:14;10.93;;;9.83;;
2161;SDS011;1087;50.226;8.682;2022-09-12T03:15:55;12.13;;;9.20;;
2161;SDS011;1087;50.226;8.682;2022-09-12T03:18:52;11.57;;;9.53;;
2161;SDS011;1087;50.226;8.682;2022-09-12T03:21:47;9.53;;;8.30;;
2161;SDS011;1087;50.226;8.682;2022-09-12T03:24:29;10.60;;;9.60;;
2161;SDS011;1087;50.226;8.682;2022-09-12T03:29:33;11.10;;;9.90;;
2161;SDS011;1087;50.226;8.682;2022-09-12T03:32:01;11.33;;;10.20;;
2161;SDS011;1087;50.226;8.682;2022-09-12T03:34:26;10.20;;;9.17;;
2161;SDS011;1087;50.226;8.682;2022-09-12T03:36:52;9.53;;;8.53;;
2161;SDS011;1087;50.226;8.682;2022-09-12T03:39:23;10.87;;;9.70;;
2161;SDS011;1087;50.226;8.682;2022-09-12T03:41:50;12.00;;;9.73;;
2161;SDS011;1087;50.226;8.682;2022-09-12T03:44:16;11.70;;;10.50;;
2161;SDS011;1087;50.226;8.682;2022-09-12T03:46:42;10.53;;;9.17;;
2161;SDS011;1087;50.226;8.682;2022-09-12T03:49:08;10.60;;;9.50;;
2161;SDS011;1087;50.226;8.682;2022-09-12T03:51:34;11.17;;;9.60;;
2161;SDS011;1087;50.226;8.682;2022-09-12T03:54:00;11.60;;;10.30;;
2161;SDS011;1087;50.226;8.682;2022-09-12T03:56:26;10.60;;;9.33;;
2161;SDS011;1087;50.226;8.682;2022-09-12T03:58:51;10.30;;;8.97;;
2161;SDS011;1087;50.226;8.682;2022-09-12T04:01:17;9.87;;;8.87;;
2161;SDS011;1087;50.226;8.682;2022-09-12T04:03:44;12.27;;;10.87;;
2161;SDS011;1087;50.226;8.682;2022-09-12T04:06:12;11.73;;;8.40;;
2161;SDS011;1087;50.226;8.682;2022-09-12T04:08:39;9.80;;;8.80;;
2161;SDS011;1087;50.226;8.682;2022-09-12T04:11:10;11.80;;;9.30;;
2161;SDS011;1087;50.226;8.682;2022-09-12T04:13:37;10.40;;;8.80;;
2161;SDS011;1087;50.226;8.682;2022-09-12T04:16:04;12.30;;;9.27;;
2161;SDS011;1087;50.226;8.682;2022-09-12T04:18:31;10.70;;;9.70;;
2161;SDS011;1087;50.226;8.682;2022-09-12T04:20:57;11.53;;;9.57;;
2161;SDS011;1087;50.226;8.682;2022-09-12T04:23:22;11.80;;;8.70;;
2161;SDS011;1087;50.226;8.682;2022-09-12T04:25:55;9.97;;;9.00;;
2161;SDS011;1087;50.226;8.682;2022-09-12T04:28:21;9.37;;;8.30;;
2161;SDS011;1087;50.226;8.682;2022-09-12T04:30:48;11.13;;;9.30;;
2161;SDS011;1087;50.226;8.682;2022-09-12T04:33:14;9.80;;;8.80;;
2161;SDS011;1087;50.226;8.682;2022-09-12T04:35:39;13.00;;;10.20;;
2161;SDS011;1087;50.226;8.682;2022-09-12T04:38:05;11.00;;;9.17;;
2161;SDS011;1087;50.226;8.682;2022-09-12T04:40:32;9.83;;;8.53;;
2161;SDS011;1087;50.226;8.682;2022-09-12T04:42:58;9.80;;;8.80;;
2161;SDS011;1087;50.226;8.682;2022-09-12T04:45:23;9.27;;;8.30;;
2161;SDS011;1087;50.226;8.682;2022-09-12T04:47:49;8.63;;;7.83;;
2161;SDS011;1087;50.226;8.682;2022-09-12T04:50:15;10.37;;;9.27;;
2161;SDS011;1087;50.226;8.682;2022-09-12T04:52:41;10.27;;;9.27;;
2161;SDS011;1087;50.226;8.682;2022-09-12T04:55:07;8.67;;;7.80;;
2161;SDS011;1087;50.226;8.682;2022-09-12T04:57:33;8.87;;;8.07;;
2161;SDS011;1087;50.226;8.682;2022-09-12T04:59:59;10.80;;;9.70;;
2161;SDS011;1087;50.226;8.682;2022-09-12T05:02:25;9.10;;;8.10;;
2161;SDS011;1087;50.226;8.682;2022-09-12T05:04:51;9.80;;;8.20;;
2161;SDS011;1087;50.226;8.682;2022-09-12T05:07:17;9.40;;;8.50;;
2161;SDS011;1087;50.226;8.682;2022-09-12T05:09:43;9.20;;;8.30;;
2161;SDS011;1087;50.226;8.682;2022-09-12T05:12:09;8.93;;;7.83;;
2161;SDS011;1087;50.226;8.682;2022-09-12T05:14:35;10.03;;;9.03;;
2161;SDS011;1087;50.226;8.682;2022-09-12T05:17:01;10.00;;;9.00;;
2161;SDS011;1087;50.226;8.682;2022-09-12T05:19:27;8.67;;;7.80;;
2161;SDS011;1087;50.226;8.682;2022-09-12T05:21:54;9.60;;;8.13;;
2161;SDS011;1087;50.226;8.682;2022-09-12T05:24:20;10.40;;;9.40;;
2161;SDS011;1087;50.226;8.682;2022-09-12T05:26:46;8.43;;;7.63;;
2161;SDS011;1087;50.226;8.682;2022-09-12T05:29:11;9.20;;;8.30;;
2161;SDS011;1087;50.226;8.682;2022-09-12T05:31:37;9.53;;;8.53;;
2161;SDS011;1087;50.226;8.682;2022-09-12T05:34:03;9.10;;;8.20;;
2161;SDS011;1087;50.226;8.682;2022-09-12T05:36:31;8.97;;;8.10;;
2161;SDS011;1087;50.226;8.682;2022-09-12T05:38:58;10.30;;;7.83;;
2161;SDS011;1087;50.226;8.682;2022-09-12T05:41:25;9.40;;;7.93;;
2161;SDS011;1087;50.226;8.682;2022-09-12T05:43:54;7.60;;;6.90;;
2161;SDS011;1087;50.226;8.682;2022-09-12T05:46:21;7.77;;;7.07;;
2161;SDS011;1087;50.226;8.682;2022-09-12T05:49:04;8.97;;;8.17;;
2161;SDS011;1087;50.226;8.682;2022-09-12T05:51:32;9.20;;;8.30;;
2161;SDS011;1087;50.226;8.682;2022-09-12T05:53:59;7.87;;;7.17;;
2161;SDS011;1087;50.226;8.682;2022-09-12T05:56:28;9.17;;;8.23;;
2161;SDS011;1087;50.226;8.682;2022-09-12T05:58:59;9.30;;;8.40;;
2161;SDS011;1087;50.226;8.682;2022-09-12T06:01:26;9.00;;;8.17;;
2161;SDS011;1087;50.226;8.682;2022-09-12T06:03:53;8.60;;;7.47;;
2161;SDS011;1087;50.226;8.682;2022-09-12T06:06:20;12.27;;;8.60;;
2161;SDS011;1087;50.226;8.682;2022-09-12T06:08:49;9.70;;;8.70;;
2161;SDS011;1087;50.226;8.682;2022-09-12T06:11:17;8.67;;;7.80;;
2161;SDS011;1087;50.226;8.682;2022-09-12T06:13:45;7.70;;;7.00;;
2161;SDS011;1087;50.226;8.682;2022-09-12T06:16:15;7.80;;;7.00;;
2161;SDS011;1087;50.226;8.682;2022-09-12T06:18:45;8.60;;;7.50;;
2161;SDS011;1087;50.226;8.682;2022-09-12T06:21:15;8.83;;;7.93;;
2161;SDS011;1087;50.226;8.682;2022-09-12T06:23:41;7.80;;;7.03;;
2161;SDS011;1087;50.226;8.682;2022-09-12T06:26:09;9.60;;;8.73;;
2161;SDS011;1087;50.226;8.682;2022-09-12T06:28:36;9.00;;;7.70;;
2161;SDS011;1087;50.226;8.682;2022-09-12T06:31:04;10.00;;;9.07;;
2161;SDS011;1087;50.226;8.682;2022-09-12T06:33:32;10.20;;;9.17;;
2161;SDS011;1087;50.226;8.682;2022-09-12T06:36:03;10.23;;;9.23;;
2161;SDS011;1087;50.226;8.682;2022-09-12T06:38:38;13.00;;;10.53;;
2161;SDS011;1087;50.226;8.682;2022-09-12T06:41:05;9.77;;;8.63;;
2161;SDS011;1087;50.226;8.682;2022-09-12T06:43:32;10.27;;;9.17;;
2161;SDS011;1087;50.226;8.682;2022-09-12T06:45:58;10.60;;;9.50;;
2161;SDS011;1087;50.226;8.682;2022-09-12T06:48:25;10.53;;;9.43;;
2161;SDS011;1087;50.226;8.682;2022-09-12T06:50:58;10.07;;;8.93;;
2161;SDS011;1087;50.226;8.682;2022-09-12T06:53:25;11.03;;;9.43;;
2161;SDS011;1087;50.226;8.682;2022-09-12T06:55:56;9.80;;;8.90;;
2161;SDS011;1087;50.226;8.682;2022-09-12T06:58:22;10.00;;;8.73;;
2161;SDS011;1087;50.226;8.682;2022-09-12T07:00:49;9.90;;;8.20;;
2161;SDS011;1087;50.226;8.682;2022-09-12T07:03:15;11.83;;;9.60;;
2161;SDS011;1087;50.226;8.682;2022-09-12T07:05:41;10.53;;;8.80;;
2161;SDS011;1087;50.226;8.682;2022-09-12T07:08:06;9.23;;;8.33;;
2161;SDS011;1087;50.226;8.682;2022-09-12T07:10:32;9.70;;;8.67;;
2161;SDS011;1087;50.226;8.682;2022-09-12T07:12:57;10.60;;;8.90;;
2161;SDS011;1087;50.226;8.682;2022-09-12T07:15:23;9.83;;;8.83;;
2161;SDS011;1087;50.226;8.682;2022-09-12T07:17:48;10.57;;;9.53;;
2161;SDS011;1087;50.226;8.682;2022-09-12T07:20:14;9.33;;;8.43;;
2161;SDS011;1087;50.226;8.682;2022-09-12T07:22:40;9.30;;;8.40;;
2161;SDS011;1087;50.226;8.682;2022-09-12T07:25:06;10.57;;;9.37;;
2161;SDS011;1087;50.226;8.682;2022-09-12T07:27:31;9.73;;;8.83;;
2161;SDS011;1087;50.226;8.682;2022-09-12T07:29:57;9.60;;;8.70;;
2161;SDS011;1087;50.226;8.682;2022-09-12T07:32:23;10.83;;;9.73;;
2161;SDS011;1087;50.226;8.682;2022-09-12T07:34:49;9.70;;;8.80;;
2161;SDS011;1087;50.226;8.682;2022-09-12T07:37:16;8.70;;;7.80;;
2161;SDS011;1087;50.226;8.682;2022-09-12T07:39:41;9.33;;;8.40;;
2161;SDS011;1087;50.226;8.682;2022-09-12T07:42:07;10.10;;;9.10;;
2161;SDS011;1087;50.226;8.682;2022-09-12T07:44:33;8.37;;;7.63;;
2161;SDS011;1087;50.226;8.682;2022-09-12T07:46:58;8.23;;;7.43;;
2161;SDS011;1087;50.226;8.682;2022-09-12T07:49:24;8.20;;;7.50;;
2161;SDS011;1087;50.226;8.682;2022-09-12T07:51:50;9.03;;;7.40;;
2161;SDS011;1087;50.226;8.682;2022-09-12T07:54:15;9.40;;;8.50;;
2161;SDS011;1087;50.226;8.682;2022-09-12T07:56:41;8.80;;;8.00;;
2161;SDS011;1087;50.226;8.682;2022-09-12T07:59:07;9.10;;;7.53;;
2161;SDS011;1087;50.226;8.682;2022-09-12T08:01:33;7.83;;;7.13;;
2161;SDS011;1087;50.226;8.682;2022-09-12T08:03:59;7.90;;;7.20;;
2161;SDS011;1087;50.226;8.682;2022-09-12T08:06:26;7.30;;;6.70;;
2161;SDS011;1087;50.226;8.682;2022-09-12T08:08:54;8.60;;;7.80;;
2161;SDS011;1087;50.226;8.682;2022-09-12T08:11:22;8.60;;;7.80;;
2161;SDS011;1087;50.226;8.682;2022-09-12T08:13:49;8.80;;;7.90;;
2161;SDS011;1087;50.226;8.682;2022-09-12T08:16:20;9.90;;;9.00;;
2161;SDS011;1087;50.226;8.682;2022-09-12T08:18:47;8.93;;;8.03;;
2161;SDS011;1087;50.226;8.682;2022-09-12T08:21:20;8.40;;;7.33;;
2161;SDS011;1087;50.226;8.682;2022-09-12T08:23:51;9.47;;;8.67;;
2161;SDS011;1087;50.226;8.682;2022-09-12T08:26:18;9.27;;;8.37;;
2161;SDS011;1087;50.226;8.682;2022-09-12T08:28:43;8.67;;;7.97;;
2161;SDS011;1087;50.226;8.682;2022-09-12T08:31:11;9.17;;;8.27;;
2161;SDS011;1087;50.226;8.682;2022-09-12T08:33:38;9.57;;;8.63;;
2161;SDS011;1087;50.226;8.682;2022-09-12T08:38:35;8.80;;;8.00;;
2161;SDS011;1087;50.226;8.682;2022-09-12T08:41:03;9.73;;;8.80;;
2161;SDS011;1087;50.226;8.682;2022-09-12T08:46:21;8.80;;;7.93;;
2161;SDS011;1087;50.226;8.682;2022-09-12T08:49:00;10.33;;;9.17;;
2161;SDS011;1087;50.226;8.682;2022-09-12T08:51:28;9.70;;;8.70;;
2161;SDS011;1087;50.226;8.682;2022-09-12T08:53:57;10.10;;;9.10;;
2161;SDS011;1087;50.226;8.682;2022-09-12T08:56:25;10.23;;;9.23;;
2161;SDS011;1087;50.226;8.682;2022-09-12T08:58:52;9.60;;;8.60;;
2161;SDS011;1087;50.226;8.682;2022-09-12T09:01:29;9.10;;;8.30;;
2161;SDS011;1087;50.226;8.682;2022-09-12T09:06:34;10.00;;;9.03;;
2161;SDS011;1087;50.226;8.682;2022-09-12T09:15:08;10.27;;;9.27;;
2161;SDS011;1087;50.226;8.682;2022-09-12T09:20:33;10.20;;;9.20;;
2161;SDS011;1087;50.226;8.682;2022-09-12T09:28:33;10.03;;;9.03;;
2161;SDS011;1087;50.226;8.682;2022-09-12T09:31:17;10.00;;;9.00;;
2161;SDS011;1087;50.226;8.682;2022-09-12T09:33:51;10.40;;;9.50;;
2161;SDS011;1087;50.226;8.682;2022-09-12T09:38:58;10.57;;;9.57;;
2161;SDS011;1087;50.226;8.682;2022-09-12T09:44:36;10.60;;;9.60;;
2161;SDS011;1087;50.226;8.682;2022-09-12T09:47:02;11.47;;;10.27;;
2161;SDS011;1087;50.226;8.682;2022-09-12T09:49:30;10.57;;;9.67;;
2161;SDS011;1087;50.226;8.682;2022-09-12T09:51:57;9.73;;;8.70;;
2161;SDS011;1087;50.226;8.682;2022-09-12T09:54:35;11.83;;;10.63;;
2161;SDS011;1087;50.226;8.682;2022-09-12T09:57:24;11.87;;;10.67;;
2161;SDS011;1087;50.226;8.682;2022-09-12T10:00:18;11.67;;;10.10;;
2161;SDS011;1087;50.226;8.682;2022-09-12T10:03:23;12.73;;;11.43;;
2161;SDS011;1087;50.226;8.682;2022-09-12T10:06:03;11.70;;;9.13;;
2161;SDS011;1087;50.226;8.682;2022-09-12T10:08:33;9.77;;;8.77;;
2161;SDS011;1087;50.226;8.682;2022-09-12T10:16:25;11.97;;;10.77;;
2161;SDS011;1087;50.226;8.682;2022-09-12T10:19:00;11.20;;;9.57;;
2161;SDS011;1087;50.226;8.682;2022-09-12T10:21:33;10.40;;;9.30;;
2161;SDS011;1087;50.226;8.682;2022-09-12T10:26:45;12.03;;;10.57;;
2161;SDS011;1087;50.226;8.682;2022-09-12T10:29:26;11.50;;;10.40;;
2161;SDS011;1087;50.226;8.682;2022-09-12T10:31:57;11.60;;;10.43;;
2161;SDS011;1087;50.226;8.682;2022-09-12T10:36:53;11.10;;;10.00;;
2161;SDS011;1087;50.226;8.682;2022-09-12T10:39:24;11.10;;;9.80;;
2161;SDS011;1087;50.226;8.682;2022-09-12T10:41:50;11.03;;;9.93;;
2161;SDS011;1087;50.226;8.682;2022-09-12T10:44:16;12.43;;;10.30;;
2161;SDS011;1087;50.226;8.682;2022-09-12T10:46:50;11.67;;;10.57;;
2161;SDS011;1087;50.226;8.682;2022-09-12T10:51:54;17.97;;;13.53;;
2161;SDS011;1087;50.226;8.682;2022-09-12T10:54:24;10.47;;;9.43;;
2161;SDS011;1087;50.226;8.682;2022-09-12T11:02:47;11.63;;;9.80;;
2161;SDS011;1087;50.226;8.682;2022-09-12T11:05:21;9.40;;;8.60;;
2161;SDS011;1087;50.226;8.682;2022-09-12T11:08:26;9.43;;;8.53;;
2161;SDS011;1087;50.226;8.682;2022-09-12T11:11:09;9.70;;;8.23;;
2161;SDS011;1087;50.226;8.682;2022-09-12T11:19:01;11.47;;;10.40;;
2161;SDS011;1087;50.226;8.682;2022-09-12T11:30:13;10.00;;;9.00;;
2161;SDS011;1087;50.226;8.682;2022-09-12T11:43:38;10.93;;;9.07;;
2161;SDS011;1087;50.226;8.682;2022-09-12T11:45:57;10.27;;;9.17;;
2161;SDS011;1087;50.226;8.682;2022-09-12T11:48:34;9.87;;;8.90;;
2161;SDS011;1087;50.226;8.682;2022-09-12T11:51:15;8.90;;;8.00;;
2161;SDS011;1087;50.226;8.682;2022-09-12T11:53:43;9.23;;;8.33;;
2161;SDS011;1087;50.226;8.682;2022-09-12T11:56:16;9.10;;;8.17;;
2161;SDS011;1087;50.226;8.682;2022-09-12T11:58:43;7.67;;;6.97;;
2161;SDS011;1087;50.226;8.682;2022-09-12T12:01:16;7.50;;;6.77;;
2161;SDS011;1087;50.226;8.682;2022-09-12T12:03:46;8.33;;;7.43;;
2161;SDS011;1087;50.226;8.682;2022-09-12T12:06:17;8.50;;;7.67;;
2161;SDS011;1087;50.226;8.682;2022-09-12T12:08:50;8.70;;;7.27;;
2161;SDS011;1087;50.226;8.682;2022-09-12T12:11:24;9.43;;;7.53;;
2161;SDS011;1087;50.226;8.682;2022-09-12T12:13:55;9.03;;;8.23;;
2161;SDS011;1087;50.226;8.682;2022-09-12T12:16:38;8.27;;;6.67;;
2161;SDS011;1087;50.226;8.682;2022-09-12T12:19:07;8.23;;;7.47;;
2161;SDS011;1087;50.226;8.682;2022-09-12T12:21:40;7.03;;;6.27;;
2161;SDS011;1087;50.226;8.682;2022-09-12T12:34:27;7.40;;;6.73;;
2161;SDS011;1087;50.226;8.682;2022-09-12T12:45:00;6.57;;;6.03;;
2161;SDS011;1087;50.226;8.682;2022-09-12T12:52:46;7.30;;;6.63;;
2161;SDS011;1087;50.226;8.682;2022-09-12T12:55:15;7.73;;;7.03;;
2161;SDS011;1087;50.226;8.682;2022-09-12T12:57:47;6.93;;;6.33;;
2161;SDS011;1087;50.226;8.682;2022-09-12T13:00:25;6.80;;;6.03;;
2161;SDS011;1087;50.226;8.682;2022-09-12T13:03:37;6.43;;;5.77;;
2161;SDS011;1087;50.226;8.682;2022-09-12T13:05:51;6.17;;;5.60;;
2161;SDS011;1087;50.226;8.682;2022-09-12T13:08:34;5.70;;;5.20;;
2161;SDS011;1087;50.226;8.682;2022-09-12T13:11:07;7.90;;;7.20;;
2161;SDS011;1087;50.226;8.682;2022-09-12T13:13:42;8.23;;;6.50;;
2161;SDS011;1087;50.226;8.682;2022-09-12T13:16:28;5.67;;;5.27;;
2161;SDS011;1087;50.226;8.682;2022-09-12T13:18:54;5.80;;;5.30;;
2161;SDS011;1087;50.226;8.682;2022-09-12T13:21:25;5.57;;;5.07;;
2161;SDS011;1087;50.226;8.682;2022-09-12T13:24:01;5.00;;;4.60;;
2161;SDS011;1087;50.226;8.682;2022-09-12T13:26:41;5.20;;;4.80;;
2161;SDS011;1087;50.226;8.682;2022-09-12T13:29:13;5.60;;;5.10;;
2161;SDS011;1087;50.226;8.682;2022-09-12T13:31:44;5.67;;;5.20;;
2161;SDS011;1087;50.226;8.682;2022-09-12T13:34:14;5.60;;;5.20;;
2161;SDS011;1087;50.226;8.682;2022-09-12T13:44:46;5.47;;;4.97;;
2161;SDS011;1087;50.226;8.682;2022-09-12T13:47:24;5.37;;;4.97;;
2161;SDS011;1087;50.226;8.682;2022-09-12T13:49:54;5.10;;;4.60;;
2161;SDS011;1087;50.226;8.682;2022-09-12T13:52:22;5.83;;;5.23;;
2161;SDS011;1087;50.226;8.682;2022-09-12T13:54:55;5.57;;;5.00;;
2161;SDS011;1087;50.226;8.682;2022-09-12T13:57:33;5.70;;;5.20;;
2161;SDS011;1087;50.226;8.682;2022-09-12T14:00:05;4.90;;;4.50;;
2161;SDS011;1087;50.226;8.682;2022-09-12T14:02:38;5.80;;;5.30;;
2161;SDS011;1087;50.226;8.682;2022-09-12T14:05:19;4.83;;;4.43;;
2161;SDS011;1087;50.226;8.682;2022-09-12T14:07:57;5.03;;;4.63;;
2161;SDS011;1087;50.226;8.682;2022-09-12T14:12:57;5.60;;;5.20;;
2161;SDS011;1087;50.226;8.682;2022-09-12T14:15:29;5.40;;;5.00;;
2161;SDS011;1087;50.226;8.682;2022-09-12T14:17:57;4.83;;;4.43;;
2161;SDS011;1087;50.226;8.682;2022-09-12T14:20:25;5.60;;;5.07;;
2161;SDS011;1087;50.226;8.682;2022-09-12T14:22:56;7.00;;;5.60;;
2161;SDS011;1087;50.226;8.682;2022-09-12T14:25:24;5.40;;;5.00;;
2161;SDS011;1087;50.226;8.682;2022-09-12T14:27:54;5.40;;;4.90;;
2161;SDS011;1087;50.226;8.682;2022-09-12T14:35:36;5.77;;;5.27;;
2161;SDS011;1087;50.226;8.682;2022-09-12T14:40:41;5.10;;;4.70;;
2161;SDS011;1087;50.226;8.682;2022-09-12T14:43:24;5.00;;;4.57;;
2161;SDS011;1087;50.226;8.682;2022-09-12T14:46:05;5.20;;;4.80;;
2161;SDS011;1087;50.226;8.682;2022-09-12T14:48:42;4.43;;;4.03;;
2161;SDS011;1087;50.226;8.682;2022-09-12T14:51:21;4.70;;;4.30;;
2161;SDS011;1087;50.226;8.682;2022-09-12T14:53:51;4.60;;;4.23;;
2161;SDS011;1087;50.226;8.682;2022-09-12T14:56:16;6.00;;;4.80;;
2161;SDS011;1087;50.226;8.682;2022-09-12T14:58:46;4.80;;;4.40;;
2161;SDS011;1087;50.226;8.682;2022-09-12T15:06:23;4.80;;;4.40;;
2161;SDS011;1087;50.226;8.682;2022-09-12T15:08:49;4.37;;;4.07;;
2161;SDS011;1087;50.226;8.682;2022-09-12T15:11:17;4.60;;;4.27;;
2161;SDS011;1087;50.226;8.682;2022-09-12T15:13:42;4.50;;;4.10;;
2161;SDS011;1087;50.226;8.682;2022-09-12T15:16:09;4.93;;;4.53;;
2161;SDS011;1087;50.226;8.682;2022-09-12T15:18:35;5.30;;;4.80;;
2161;SDS011;1087;50.226;8.682;2022-09-12T15:21:02;5.20;;;4.70;;
2161;SDS011;1087;50.226;8.682;2022-09-12T15:23:34;5.10;;;4.50;;
2161;SDS011;1087;50.226;8.682;2022-09-12T15:26:04;5.07;;;4.67;;
2161;SDS011;1087;50.226;8.682;2022-09-12T15:28:30;4.73;;;4.33;;
2161;SDS011;1087;50.226;8.682;2022-09-12T15:30:56;5.10;;;4.60;;
2161;SDS011;1087;50.226;8.682;2022-09-12T15:33:24;5.40;;;4.30;;
2161;SDS011;1087;50.226;8.682;2022-09-12T15:35:50;4.83;;;4.43;;
2161;SDS011;1087;50.226;8.682;2022-09-12T15:38:16;4.37;;;4.07;;
2161;SDS011;1087;50.226;8.682;2022-09-12T15:40:42;5.20;;;4.80;;
2161;SDS011;1087;50.226;8.682;2022-09-12T15:43:13;4.83;;;4.43;;
2161;SDS011;1087;50.226;8.682;2022-09-12T15:45:40;4.20;;;3.90;;
2161;SDS011;1087;50.226;8.682;2022-09-12T15:48:07;4.67;;;4.27;;
2161;SDS011;1087;50.226;8.682;2022-09-12T15:50:32;5.33;;;4.83;;
2161;SDS011;1087;50.226;8.682;2022-09-12T15:52:58;5.30;;;4.90;;
2161;SDS011;1087;50.226;8.682;2022-09-12T15:55:27;5.00;;;4.50;;
2161;SDS011;1087;50.226;8.682;2022-09-12T15:57:56;5.27;;;4.87;;
2161;SDS011;1087;50.226;8.682;2022-09-12T16:00:22;7.13;;;4.53;;
2161;SDS011;1087;50.226;8.682;2022-09-12T16:02:49;5.13;;;4.67;;
2161;SDS011;1087;50.226;8.682;2022-09-12T16:05:20;5.70;;;5.00;;
2161;SDS011;1087;50.226;8.682;2022-09-12T16:07:51;5.70;;;5.20;;
2161;SDS011;1087;50.226;8.682;2022-09-12T16:10:19;5.17;;;4.77;;
2161;SDS011;1087;50.226;8.682;2022-09-12T16:12:50;5.20;;;4.80;;
2161;SDS011;1087;50.226;8.682;2022-09-12T16:15:17;5.60;;;5.10;;
2161;SDS011;1087;50.226;8.682;2022-09-12T16:17:44;4.80;;;4.33;;
2161;SDS011;1087;50.226;8.682;2022-09-12T16:20:10;5.30;;;4.90;;
2161;SDS011;1087;50.226;8.682;2022-09-12T16:22:36;4.60;;;4.20;;
2161;SDS011;1087;50.226;8.682;2022-09-12T16:25:03;4.90;;;4.50;;
2161;SDS011;1087;50.226;8.682;2022-09-12T16:27:30;7.00;;;6.40;;
2161;SDS011;1087;50.226;8.682;2022-09-12T16:29:56;6.00;;;5.50;;
2161;SDS011;1087;50.226;8.682;2022-09-12T16:32:21;5.37;;;4.90;;
2161;SDS011;1087;50.226;8.682;2022-09-12T16:34:47;5.27;;;4.87;;
2161;SDS011;1087;50.226;8.682;2022-09-12T16:37:14;5.60;;;4.97;;
2161;SDS011;1087;50.226;8.682;2022-09-12T16:39:39;5.07;;;4.67;;
2161;SDS011;1087;50.226;8.682;2022-09-12T16:42:05;5.30;;;4.90;;
2161;SDS011;1087;50.226;8.682;2022-09-12T16:44:30;4.93;;;4.53;;
2161;SDS011;1087;50.226;8.682;2022-09-12T16:46:56;5.03;;;4.53;;
2161;SDS011;1087;50.226;8.682;2022-09-12T16:49:21;5.00;;;4.60;;
2161;SDS011;1087;50.226;8.682;2022-09-12T16:51:47;6.10;;;4.60;;
2161;SDS011;1087;50.226;8.682;2022-09-12T16:54:13;4.97;;;4.50;;
2161;SDS011;1087;50.226;8.682;2022-09-12T16:56:39;9.10;;;5.03;;
2161;SDS011;1087;50.226;8.682;2022-09-12T16:59:06;5.30;;;4.90;;
2161;SDS011;1087;50.226;8.682;2022-09-12T17:01:33;5.27;;;4.77;;
2161;SDS011;1087;50.226;8.682;2022-09-12T17:03:59;5.00;;;4.60;;
2161;SDS011;1087;50.226;8.682;2022-09-12T17:06:25;6.17;;;5.57;;
2161;SDS011;1087;50.226;8.682;2022-09-12T17:08:52;6.07;;;4.97;;
2161;SDS011;1087;50.226;8.682;2022-09-12T17:11:24;5.13;;;4.63;;
2161;SDS011;1087;50.226;8.682;2022-09-12T17:14:09;5.43;;;4.93;;
2161;SDS011;1087;50.226;8.682;2022-09-12T17:16:36;6.07;;;5.47;;
2161;SDS011;1087;50.226;8.682;2022-09-12T17:19:04;6.20;;;5.60;;
2161;SDS011;1087;50.226;8.682;2022-09-12T17:21:30;6.60;;;6.10;;
2161;SDS011;1087;50.226;8.682;2022-09-12T17:23:55;6.20;;;5.70;;
2161;SDS011;1087;50.226;8.682;2022-09-12T17:26:23;6.90;;;6.27;;
2161;SDS011;1087;50.226;8.682;2022-09-12T17:28:49;5.90;;;5.40;;
2161;SDS011;1087;50.226;8.682;2022-09-12T17:31:14;5.87;;;5.27;;
2161;SDS011;1087;50.226;8.682;2022-09-12T17:33:41;5.80;;;5.23;;
2161;SDS011;1087;50.226;8.682;2022-09-12T17:36:07;7.23;;;6.63;;
2161;SDS011;1087;50.226;8.682;2022-09-12T17:38:36;6.17;;;5.67;;
2161;SDS011;1087;50.226;8.682;2022-09-12T17:41:06;6.60;;;6.00;;
2161;SDS011;1087;50.226;8.682;2022-09-12T17:43:39;6.03;;;5.53;;
2161;SDS011;1087;50.226;8.682;2022-09-12T17:46:06;6.03;;;5.50;;
2161;SDS011;1087;50.226;8.682;2022-09-12T17:48:32;6.00;;;5.50;;
2161;SDS011;1087;50.226;8.682;2022-09-12T17:50:58;7.07;;;6.40;;
2161;SDS011;1087;50.226;8.682;2022-09-12T17:53:37;6.57;;;5.97;;
2161;SDS011;1087;50.226;8.682;2022-09-12T17:56:04;7.80;;;7.10;;
2161;SDS011;1087;50.226;8.682;2022-09-12T17:58:30;8.20;;;7.47;;
2161;SDS011;1087;50.226;8.682;2022-09-12T18:01:03;13.27;;;12.10;;